createdAt,value
2018-09-03T00:02:18.039Z,2.10
2018-09-03T00:04:47.052Z,2.17
2018-09-03T00:07:16.347Z,2.43
2018-09-03T00:09:45.375Z,2.27
2018-09-03T00:12:14.360Z,2.63
2018-09-03T00:14:43.411Z,2.20
2018-09-03T00:17:12.435Z,2.57
2018-09-03T00:19:41.459Z,2.33
2018-09-03T00:22:10.439Z,2.77
2018-09-03T00:24:39.796Z,2.70
2018-09-03T00:27:08.806Z,2.43
2018-09-03T00:29:37.786Z,2.50
2018-09-03T00:32:12.705Z,2.70
2018-09-03T00:34:47.002Z,2.67
2018-09-03T00:37:21.674Z,2.60
2018-09-03T00:39:55.990Z,2.80
2018-09-03T00:42:30.330Z,3.07
2018-09-03T00:45:04.652Z,2.53
2018-09-03T00:47:33.658Z,3.13
2018-09-03T00:50:02.633Z,2.73
2018-09-03T00:52:31.610Z,2.70
2018-09-03T00:55:00.706Z,2.73
2018-09-03T00:57:29.694Z,3.03
2018-09-03T00:59:58.701Z,2.53
2018-09-03T01:02:27.686Z,3.00
2018-09-03T01:04:57.179Z,3.17
2018-09-03T01:07:26.166Z,3.03
2018-09-03T01:09:55.142Z,3.13
2018-09-03T01:12:24.154Z,3.67
2018-09-03T01:14:53.135Z,3.30
2018-09-03T01:17:22.413Z,3.20
2018-09-03T01:19:51.424Z,3.37
2018-09-03T01:22:20.393Z,3.13
2018-09-03T01:24:49.603Z,3.10
2018-09-03T01:27:18.594Z,3.10
2018-09-03T01:29:47.970Z,2.90
2018-09-03T01:32:16.940Z,3.00
2018-09-03T01:34:45.922Z,2.87
2018-09-03T01:37:15.006Z,2.90
2018-09-03T01:39:43.998Z,3.23
2018-09-03T01:42:13.323Z,3.30
2018-09-03T01:44:42.309Z,3.20
2018-09-03T01:47:11.310Z,2.97
2018-09-03T01:49:40.291Z,3.00
2018-09-03T01:52:09.369Z,3.27
2018-09-03T01:54:38.371Z,3.27
2018-09-03T01:57:07.361Z,3.17
2018-09-03T01:59:36.633Z,3.03
2018-09-03T02:02:05.640Z,2.63
2018-09-03T02:04:34.649Z,2.83
2018-09-03T02:07:03.667Z,3.37
2018-09-03T02:09:32.741Z,3.00
2018-09-03T02:12:02.097Z,3.00
2018-09-03T02:14:31.072Z,3.00
2018-09-03T02:17:00.054Z,3.00
2018-09-03T02:19:29.105Z,2.90
2018-09-03T02:21:58.094Z,3.00
2018-09-03T02:24:27.118Z,2.93
2018-09-03T02:26:56.106Z,3.60
2018-09-03T02:29:25.206Z,2.90
2018-09-03T02:31:54.198Z,2.90
2018-09-03T02:34:23.196Z,3.00
2018-09-03T02:36:52.193Z,3.17
2018-09-03T02:39:21.274Z,3.27
2018-09-03T02:41:50.591Z,3.37
2018-09-03T02:44:19.576Z,3.10
2018-09-03T02:46:48.569Z,3.03
2018-09-03T02:49:17.564Z,2.90
2018-09-03T02:51:46.543Z,3.03
2018-09-03T02:54:15.550Z,3.00
2018-09-03T02:56:44.538Z,2.70
2018-09-03T02:59:13.546Z,3.00
2018-09-03T03:01:42.772Z,3.40
2018-09-03T03:04:11.749Z,2.77
2018-09-03T03:06:40.742Z,3.00
2018-09-03T03:09:09.727Z,3.10
2018-09-03T03:11:39.532Z,3.40
2018-09-03T03:14:08.696Z,2.87
2018-09-03T03:16:37.714Z,3.00
2018-09-03T03:19:06.704Z,2.80
2018-09-03T03:21:35.930Z,3.10
2018-09-03T03:24:04.900Z,2.90
2018-09-03T03:26:33.875Z,2.93
2018-09-03T03:29:02.938Z,3.33
2018-09-03T03:31:31.989Z,3.30
2018-09-03T03:34:01.261Z,3.47
2018-09-03T03:36:30.233Z,3.37
2018-09-03T03:38:59.211Z,3.40
2018-09-03T03:41:28.337Z,3.20
2018-09-03T03:43:57.349Z,3.63
2018-09-03T03:46:26.361Z,3.17
2018-09-03T03:48:55.350Z,3.37
2018-09-03T03:51:24.622Z,3.30
2018-09-03T03:53:53.594Z,3.27
2018-09-03T03:56:22.586Z,3.27
2018-09-03T03:58:51.770Z,3.53
2018-09-03T04:01:20.754Z,3.57
2018-09-03T04:03:49.842Z,3.77
2018-09-03T04:06:18.858Z,3.97
2018-09-03T04:08:47.927Z,3.97
2018-09-03T04:11:16.926Z,3.80
2018-09-03T04:13:45.962Z,4.33
2018-09-03T04:16:14.966Z,3.60
2018-09-03T04:18:43.946Z,3.87
2018-09-03T04:21:13.201Z,3.70
2018-09-03T04:23:42.278Z,3.60
2018-09-03T04:26:11.326Z,3.70
2018-09-03T04:28:40.400Z,3.57
2018-09-03T04:31:09.382Z,3.60
2018-09-03T04:33:38.785Z,3.90
2018-09-03T04:36:07.774Z,3.90
2018-09-03T04:38:36.820Z,4.07
2018-09-03T04:41:05.770Z,3.67
2018-09-03T04:43:34.781Z,4.50
2018-09-03T04:46:03.790Z,4.50
2018-09-03T04:48:32.774Z,4.03
2018-09-03T04:51:02.097Z,4.10
2018-09-03T04:53:31.949Z,3.50
2018-09-03T04:56:00.962Z,4.00
2018-09-03T04:58:30.042Z,3.83
2018-09-03T05:00:59.057Z,3.50
2018-09-03T05:03:28.029Z,3.40
2018-09-03T05:05:57.069Z,3.80
2018-09-03T05:08:26.044Z,3.90
2018-09-03T05:10:55.053Z,3.73
2018-09-03T05:13:24.041Z,3.60
2018-09-03T05:15:53.115Z,3.70
2018-09-03T05:18:22.061Z,3.50
2018-09-03T05:20:51.038Z,3.47
2018-09-03T05:23:20.117Z,3.57
2018-09-03T05:25:49.174Z,3.37
2018-09-03T05:28:18.163Z,3.47
2018-09-03T05:30:47.193Z,3.90
2018-09-03T05:33:16.216Z,3.70
2018-09-03T05:35:45.249Z,3.80
2018-09-03T05:38:14.234Z,3.40
2018-09-03T05:40:43.225Z,3.67
2018-09-03T05:43:12.316Z,3.40
2018-09-03T05:45:41.394Z,3.63
2018-09-03T05:48:10.802Z,3.87
2018-09-03T05:50:39.829Z,3.90
2018-09-03T05:53:08.778Z,4.00
2018-09-03T05:55:37.802Z,4.20
2018-09-03T05:58:07.202Z,4.40
2018-09-03T06:00:36.302Z,4.00
2018-09-03T06:03:05.479Z,4.00
2018-09-03T06:05:34.481Z,4.07
2018-09-03T06:08:03.493Z,4.00
2018-09-03T06:10:32.539Z,3.70
2018-09-03T06:13:01.746Z,4.20
2018-09-03T06:15:30.750Z,3.73
2018-09-03T06:17:59.766Z,3.83
2018-09-03T06:20:28.773Z,3.70
2018-09-03T06:22:57.754Z,3.73
2018-09-03T06:25:26.850Z,3.97
2018-09-03T06:27:55.882Z,3.90
2018-09-03T06:30:24.881Z,4.17
2018-09-03T06:32:53.959Z,4.00
2018-09-03T06:35:22.996Z,4.10
2018-09-03T06:37:52.056Z,4.30
2018-09-03T06:40:21.044Z,4.07
2018-09-03T06:42:50.106Z,4.40
2018-09-03T06:45:19.273Z,4.53
2018-09-03T06:47:48.269Z,4.67
2018-09-03T06:50:17.353Z,4.80
2018-09-03T06:52:46.566Z,4.67
2018-09-03T06:55:15.557Z,4.93
2018-09-03T06:57:44.561Z,4.70
2018-09-03T07:00:13.563Z,4.90
2018-09-03T07:02:43.046Z,4.70
2018-09-03T07:05:15.556Z,4.60
2018-09-03T07:07:44.629Z,5.33
2018-09-03T07:10:13.756Z,5.20
2018-09-03T07:12:42.867Z,5.27
2018-09-03T07:15:11.954Z,5.30
2018-09-03T07:17:41.610Z,5.20
2018-09-03T07:20:10.597Z,5.37
2018-09-03T07:22:39.609Z,4.83
2018-09-03T07:25:08.593Z,4.77
2018-09-03T07:27:37.825Z,5.10
2018-09-03T07:30:06.927Z,4.97
2018-09-03T07:32:35.913Z,5.10
2018-09-03T07:35:05.135Z,4.93
2018-09-03T07:37:34.414Z,5.10
2018-09-03T07:40:03.414Z,5.20
2018-09-03T07:42:33.102Z,5.10
2018-09-03T07:45:02.082Z,5.60
2018-09-03T07:47:31.149Z,4.80
2018-09-03T07:50:00.174Z,5.43
2018-09-03T07:52:29.165Z,5.73
2018-09-03T07:54:58.179Z,6.33
2018-09-03T07:57:27.453Z,6.80
2018-09-03T07:59:56.533Z,6.70
2018-09-03T08:02:25.535Z,5.97
2018-09-03T08:04:54.678Z,6.40
2018-09-03T08:07:23.756Z,6.90
2018-09-03T08:09:52.865Z,6.80
2018-09-03T08:12:21.954Z,6.40
2018-09-03T08:14:50.939Z,7.27
2018-09-03T08:17:19.954Z,7.00
2018-09-03T08:19:48.970Z,7.47
2018-09-03T08:22:18.221Z,6.77
2018-09-03T08:24:47.196Z,8.63
2018-09-03T08:27:16.174Z,8.13
2018-09-03T08:29:45.208Z,8.00
2018-09-03T08:32:14.190Z,7.77
2018-09-03T08:34:43.246Z,8.30
2018-09-03T08:37:12.233Z,7.87
2018-09-03T08:39:41.213Z,8.37
2018-09-03T08:42:10.275Z,8.63
2018-09-03T08:44:39.393Z,8.37
2018-09-03T08:47:08.491Z,8.57
2018-09-03T08:49:37.466Z,8.53
2018-09-03T08:52:06.792Z,9.27
2018-09-03T08:54:35.842Z,9.20
2018-09-03T08:57:04.854Z,10.50
2018-09-03T08:59:34.184Z,8.27
2018-09-03T09:02:03.182Z,8.50
2018-09-03T09:04:32.449Z,9.13
2018-09-03T09:07:01.450Z,8.58
2018-09-03T09:09:30.472Z,8.90
2018-09-03T09:11:59.556Z,9.00
2018-09-03T09:14:29.414Z,9.30
2018-09-03T09:16:58.731Z,8.20
2018-09-03T09:19:27.837Z,8.08
2018-09-03T09:21:56.814Z,8.48
2018-09-03T09:24:25.872Z,8.10
2018-09-03T09:26:54.833Z,7.90
2018-09-03T09:29:23.846Z,8.43
2018-09-03T09:31:52.819Z,8.20
2018-09-03T09:34:21.873Z,7.90
2018-09-03T09:36:50.946Z,9.48
2018-09-03T09:39:19.829Z,8.93
2018-09-03T09:41:48.834Z,8.93
2018-09-03T09:44:17.872Z,8.83
2018-09-03T09:46:46.885Z,8.18
2018-09-03T09:49:15.873Z,8.50
2018-09-03T09:51:45.294Z,9.50
2018-09-03T09:54:14.302Z,9.10
2018-09-03T09:56:43.300Z,8.53
2018-09-03T09:59:12.310Z,8.43
2018-09-03T10:01:41.314Z,8.73
2018-09-03T10:04:10.342Z,8.60
2018-09-03T10:06:39.300Z,8.80
2018-09-03T10:09:08.694Z,8.68
2018-09-03T10:11:37.687Z,10.10
2018-09-03T10:14:07.006Z,9.73
2018-09-03T10:16:35.998Z,11.30
2018-09-03T10:19:05.105Z,10.32
2018-09-03T10:21:34.119Z,9.75
2018-09-03T10:24:03.129Z,9.40
2018-09-03T10:26:32.129Z,8.98
2018-09-03T10:29:01.147Z,10.00
2018-09-03T10:31:30.301Z,9.28
2018-09-03T10:33:59.306Z,10.08
2018-09-03T10:36:28.305Z,6.83
2018-09-03T10:38:57.302Z,9.60
2018-09-03T10:41:26.283Z,8.65
2018-09-03T10:43:55.257Z,10.18
2018-09-03T10:46:24.559Z,9.95
2018-09-03T10:48:53.541Z,8.88
2018-09-03T10:51:22.529Z,9.28
2018-09-03T10:53:51.554Z,9.10
2018-09-03T10:56:20.529Z,8.60
2018-09-03T10:58:49.528Z,9.40
2018-09-03T11:01:18.772Z,8.65
2018-09-03T11:03:48.198Z,9.70
2018-09-03T11:06:17.383Z,9.95
2018-09-03T11:08:46.527Z,9.80
2018-09-03T11:11:15.541Z,8.88
2018-09-03T11:13:44.554Z,9.30
2018-09-03T11:16:13.593Z,8.95
2018-09-03T11:18:42.618Z,8.98
2018-09-03T11:21:11.696Z,9.45
2018-09-03T11:23:40.838Z,9.95
2018-09-03T11:26:09.865Z,10.23
2018-09-03T11:28:39.000Z,10.18
2018-09-03T11:31:08.170Z,9.95
2018-09-03T11:33:37.203Z,9.58
2018-09-03T11:36:06.198Z,10.70
2018-09-03T11:38:35.396Z,11.48
2018-09-03T11:41:04.530Z,10.30
2018-09-03T11:43:33.740Z,10.32
2018-09-03T11:46:03.006Z,9.48
2018-09-03T11:48:32.046Z,10.10
2018-09-03T11:51:01.099Z,9.90
2018-09-03T11:53:30.216Z,10.40
2018-09-03T11:55:59.217Z,10.28
2018-09-03T11:58:28.219Z,9.95
2018-09-03T12:00:58.169Z,10.32
2018-09-03T12:03:27.142Z,9.93
2018-09-03T12:05:56.227Z,10.68
2018-09-03T12:08:25.278Z,10.23
2018-09-03T12:10:54.301Z,10.32
2018-09-03T12:13:23.329Z,10.40
2018-09-03T12:16:24.043Z,10.72
2018-09-03T12:18:55.644Z,10.23
2018-09-03T12:21:24.762Z,10.45
2018-09-03T12:23:53.971Z,11.08
2018-09-03T12:26:23.094Z,10.28
2018-09-03T12:28:52.389Z,10.50
2018-09-03T12:31:21.609Z,10.40
2018-09-03T12:33:50.716Z,9.85
2018-09-03T12:36:19.871Z,10.13
2018-09-03T12:38:48.885Z,10.10
2018-09-03T12:41:18.082Z,10.05
2018-09-03T12:43:47.182Z,10.10
2018-09-03T12:46:17.463Z,10.05
2018-09-03T12:48:46.605Z,9.43
2018-09-03T12:51:15.682Z,10.45
2018-09-03T12:53:44.709Z,9.78
2018-09-03T12:56:13.696Z,10.63
2018-09-03T12:58:42.739Z,9.35
2018-09-03T13:01:10.755Z,10.13
2018-09-03T13:03:39.505Z,9.53
2018-09-03T13:06:08.616Z,10.08
2018-09-03T13:08:37.605Z,10.00
2018-09-03T13:11:06.601Z,9.55
2018-09-03T13:13:35.606Z,9.40
2018-09-03T13:16:04.602Z,9.75
2018-09-03T13:18:33.611Z,9.63
2018-09-03T13:21:02.619Z,9.68
2018-09-03T13:23:31.654Z,10.03
2018-09-03T13:26:00.645Z,10.30
2018-09-03T13:28:29.633Z,10.08
2018-09-03T13:30:58.726Z,9.70
2018-09-03T13:33:27.765Z,9.88
2018-09-03T13:35:56.747Z,10.10
2018-09-03T13:38:25.759Z,9.15
2018-09-03T13:40:54.751Z,9.98
2018-09-03T13:43:23.741Z,9.48
2018-09-03T13:48:14.326Z,9.48
2018-09-03T13:50:43.274Z,9.68
2018-09-03T13:53:12.273Z,9.05
2018-09-03T13:55:41.301Z,9.55
2018-09-03T13:58:10.279Z,9.53
2018-09-03T14:00:39.281Z,9.68
2018-09-03T14:03:08.269Z,10.00
2018-09-03T14:05:37.292Z,9.73
2018-09-03T14:08:06.291Z,9.58
2018-09-03T14:10:35.269Z,9.20
2018-09-03T14:13:04.267Z,8.80
2018-09-03T14:15:33.278Z,9.90
2018-09-03T14:18:08.939Z,9.50
2018-09-03T14:20:37.915Z,8.68
2018-09-03T14:23:06.922Z,9.03
2018-09-03T14:25:36.006Z,8.95
2018-09-03T14:28:05.162Z,9.25
2018-09-03T14:30:34.157Z,9.60
2018-09-03T14:33:03.183Z,8.90
2018-09-03T14:35:32.206Z,9.85
2018-09-03T14:38:02.232Z,8.98
2018-09-03T14:40:31.222Z,9.30
2018-09-03T14:43:00.559Z,9.43
2018-09-03T14:45:29.558Z,9.20
2018-09-03T14:47:58.591Z,9.38
2018-09-03T14:50:27.846Z,9.00
2018-09-03T14:52:57.034Z,9.48
2018-09-03T14:55:26.153Z,11.05
2018-09-03T14:57:55.375Z,10.28
2018-09-03T15:00:24.374Z,9.93
2018-09-03T15:02:53.397Z,10.72
2018-09-03T15:05:22.382Z,10.30
2018-09-03T15:07:51.779Z,10.03
2018-09-03T15:10:20.909Z,10.48
2018-09-03T15:12:49.897Z,10.45
2018-09-03T15:15:19.013Z,10.20
2018-09-03T15:17:47.985Z,11.22
2018-09-03T15:20:16.970Z,11.00
2018-09-03T15:22:45.997Z,10.53
2018-09-03T15:25:15.019Z,10.45
2018-09-03T15:27:44.000Z,9.88
2018-09-03T15:30:13.021Z,11.28
2018-09-03T15:32:42.062Z,10.60
2018-09-03T15:35:11.065Z,11.95
2018-09-03T15:37:40.159Z,11.22
2018-09-03T15:40:09.142Z,10.53
2018-09-03T15:42:38.160Z,10.55
2018-09-03T15:45:07.138Z,10.75
2018-09-03T15:47:36.394Z,10.70
2018-09-03T15:50:05.841Z,10.72
2018-09-03T15:52:34.870Z,10.50
2018-09-03T15:55:03.897Z,10.25
2018-09-03T15:57:32.882Z,10.00
2018-09-03T16:00:01.946Z,10.50
2018-09-03T16:02:30.930Z,9.73
2018-09-03T16:04:59.974Z,10.80
2018-09-03T16:07:28.977Z,10.35
2018-09-03T16:09:58.041Z,10.00
2018-09-03T16:12:27.261Z,10.25
2018-09-03T16:14:56.246Z,10.53
2018-09-03T16:17:25.241Z,9.78
2018-09-03T16:19:54.461Z,9.98
2018-09-03T16:22:23.445Z,9.75
2018-09-03T16:24:52.499Z,10.10
2018-09-03T16:27:21.541Z,9.70
2018-09-03T16:29:50.521Z,9.95
2018-09-03T16:32:19.632Z,10.08
2018-09-03T16:34:48.614Z,9.73
2018-09-03T16:37:17.983Z,9.43
2018-09-03T16:39:46.989Z,9.85
2018-09-03T16:42:16.110Z,9.55
2018-09-03T16:44:45.442Z,10.13
2018-09-03T16:47:14.420Z,9.03
2018-09-03T16:49:43.440Z,10.63
2018-09-03T16:52:12.467Z,10.35
2018-09-03T16:54:41.454Z,10.60
2018-09-03T16:57:10.469Z,9.80
2018-09-03T16:59:39.634Z,11.00
2018-09-03T17:02:08.650Z,11.73
2018-09-03T17:04:37.717Z,10.98
2018-09-03T17:07:06.894Z,11.08
2018-09-03T17:09:36.329Z,10.15
2018-09-03T17:12:05.314Z,9.98
2018-09-03T17:14:34.338Z,10.03
2018-09-03T17:17:03.309Z,10.00
2018-09-03T17:19:32.321Z,9.88
2018-09-03T17:22:01.330Z,9.50
2018-09-03T17:24:30.297Z,9.85
2018-09-03T17:26:59.351Z,9.53
2018-09-03T17:29:35.074Z,10.23
2018-09-03T17:32:04.174Z,9.98
2018-09-03T17:34:33.193Z,9.58
2018-09-03T17:37:02.210Z,9.70
2018-09-03T17:39:31.225Z,11.97
2018-09-03T17:42:06.833Z,11.68
2018-09-03T17:44:35.855Z,10.30
2018-09-03T17:47:05.116Z,10.30
2018-09-03T17:49:34.361Z,10.10
2018-09-03T17:52:03.650Z,24.95
2018-09-03T17:54:32.825Z,21.75
2018-09-03T17:57:01.881Z,16.37
2018-09-03T17:59:30.881Z,9.85
2018-09-03T18:01:59.878Z,9.98
2018-09-03T18:04:29.001Z,9.58
2018-09-03T18:06:57.995Z,8.90
2018-09-03T18:09:27.073Z,8.98
2018-09-03T18:11:56.402Z,8.93
2018-09-03T18:14:25.482Z,8.70
2018-09-03T18:16:54.799Z,8.80
2018-09-03T18:19:23.774Z,8.83
2018-09-03T18:21:52.951Z,8.30
2018-09-03T18:24:21.789Z,8.13
2018-09-03T18:26:50.842Z,7.92
2018-09-03T18:29:19.843Z,7.73
2018-09-03T18:31:48.847Z,8.00
2018-09-03T18:34:17.930Z,7.93
2018-09-03T18:36:46.919Z,7.95
2018-09-03T18:39:15.919Z,7.70
2018-09-03T18:41:44.950Z,8.37
2018-09-03T18:44:13.906Z,8.40
2018-09-03T18:46:43.012Z,8.03
2018-09-03T18:49:11.997Z,7.90
2018-09-03T18:51:41.045Z,7.80
2018-09-03T18:54:10.124Z,8.23
2018-09-03T18:56:39.076Z,8.20
2018-09-03T18:59:08.593Z,8.43
2018-09-03T19:01:37.658Z,8.33
2018-09-03T19:04:06.652Z,8.20
2018-09-03T19:06:35.632Z,8.23
2018-09-03T19:09:05.934Z,8.40
2018-09-03T19:11:34.953Z,8.13
2018-09-03T19:14:03.937Z,8.27
2018-09-03T19:16:32.957Z,7.93
2018-09-03T19:19:02.173Z,7.73
2018-09-03T19:21:31.273Z,8.17
2018-09-03T19:24:00.262Z,8.70
2018-09-03T19:26:29.348Z,8.57
2018-09-03T19:28:58.436Z,8.50
2018-09-03T19:31:27.463Z,8.70
2018-09-03T19:33:56.522Z,8.63
2018-09-03T19:36:25.598Z,8.60
2018-09-03T19:38:54.611Z,8.57
2018-09-03T19:41:23.941Z,8.57
2018-09-03T19:43:52.925Z,9.43
2018-09-03T19:46:21.913Z,8.40
2018-09-03T19:48:51.422Z,8.80
2018-09-03T19:51:20.641Z,8.30
2018-09-03T19:53:49.650Z,8.80
2018-09-03T19:56:18.801Z,9.27
2018-09-03T19:58:47.882Z,9.73
2018-09-03T20:01:16.891Z,9.40
2018-09-03T20:03:45.882Z,9.23
2018-09-03T20:06:15.306Z,9.60
2018-09-03T20:08:44.224Z,9.00
2018-09-03T20:11:13.319Z,8.90
2018-09-03T20:13:42.337Z,9.80
2018-09-03T20:16:11.370Z,9.30
2018-09-03T20:18:40.362Z,9.97
2018-09-03T20:21:09.343Z,9.43
2018-09-03T20:23:38.772Z,9.93
2018-09-03T20:26:07.608Z,9.87
2018-09-03T20:28:36.648Z,9.83
2018-09-03T20:31:05.875Z,9.63
2018-09-03T20:33:34.854Z,9.90
2018-09-03T20:36:04.142Z,9.87
2018-09-03T20:38:33.138Z,9.80
2018-09-03T20:41:03.395Z,10.77
2018-09-03T20:43:32.392Z,10.23
2018-09-03T20:46:01.482Z,9.67
2018-09-03T20:48:36.702Z,10.10
2018-09-03T20:51:05.878Z,10.43
2018-09-03T20:53:35.183Z,10.50
2018-09-03T20:56:04.250Z,10.40
2018-09-03T20:58:33.509Z,10.73
2018-09-03T21:01:02.642Z,10.43
2018-09-03T21:03:31.655Z,10.97
2018-09-03T21:06:00.806Z,10.60
2018-09-03T21:08:29.889Z,10.50
2018-09-03T21:10:58.814Z,10.63
2018-09-03T21:13:27.826Z,10.07
2018-09-03T21:15:56.815Z,10.67
2018-09-03T21:18:26.166Z,10.80
2018-09-03T21:20:55.157Z,10.73
2018-09-03T21:23:24.329Z,10.63
2018-09-03T21:25:53.306Z,10.50
2018-09-03T21:28:22.303Z,10.27
2018-09-03T21:30:51.338Z,11.43
2018-09-03T21:33:20.373Z,11.00
2018-09-03T21:35:49.375Z,10.33
2018-09-03T21:38:18.389Z,11.07
2018-09-03T21:40:47.381Z,13.70
2018-09-03T21:43:16.421Z,14.63
2018-09-03T21:45:45.430Z,14.33
2018-09-03T21:48:14.426Z,12.80
2018-09-03T21:50:43.444Z,12.13
2018-09-03T21:53:12.430Z,11.57
2018-09-03T21:55:41.445Z,11.17
2018-09-03T21:58:10.554Z,11.40
2018-09-03T22:00:39.594Z,12.53
2018-09-03T22:03:08.581Z,11.83
2018-09-03T22:05:37.570Z,11.70
2018-09-03T22:08:06.626Z,11.13
2018-09-03T22:10:35.714Z,11.90
2018-09-03T22:13:04.853Z,11.67
2018-09-03T22:15:33.929Z,11.40
2018-09-03T22:18:03.265Z,10.93
2018-09-03T22:20:32.269Z,10.70
2018-09-03T22:23:01.270Z,11.73
2018-09-03T22:25:30.315Z,11.63
2018-09-03T22:27:59.406Z,11.53
2018-09-03T22:30:28.530Z,11.87
2018-09-03T22:32:57.522Z,11.63
2018-09-03T22:35:26.567Z,11.63
2018-09-03T22:37:55.605Z,11.77
2018-09-03T22:40:24.757Z,11.57
2018-09-03T22:42:53.798Z,11.03
2018-09-03T22:45:22.797Z,12.10
2018-09-03T22:47:52.173Z,12.57
2018-09-03T22:50:21.184Z,12.73
2018-09-03T22:52:50.207Z,12.27
2018-09-03T22:55:19.207Z,11.07
2018-09-03T22:57:48.210Z,11.50
2018-09-03T23:00:17.200Z,12.00
2018-09-03T23:02:46.943Z,11.50
2018-09-03T23:05:15.940Z,12.53
2018-09-03T23:07:45.241Z,12.23
2018-09-03T23:10:14.233Z,11.67
2018-09-03T23:12:43.266Z,11.77
2018-09-03T23:15:12.321Z,11.97
2018-09-03T23:17:41.329Z,12.13
2018-09-03T23:20:10.401Z,12.33
2018-09-03T23:22:39.406Z,12.47
2018-09-03T23:25:08.795Z,12.20
2018-09-03T23:27:37.781Z,12.60
2018-09-03T23:30:06.778Z,11.93
2018-09-03T23:32:35.809Z,12.40
2018-09-03T23:35:04.914Z,12.23
2018-09-03T23:37:33.921Z,12.63
2018-09-03T23:40:03.129Z,13.13
2018-09-03T23:42:32.122Z,12.83
2018-09-03T23:45:01.131Z,13.10
2018-09-03T23:47:30.149Z,13.07
2018-09-03T23:49:59.157Z,12.77
2018-09-03T23:52:28.147Z,12.47
2018-09-03T23:54:57.267Z,12.47
2018-09-03T23:57:26.254Z,12.53
2018-09-03T23:59:55.240Z,12.67
